Data for 12/02/2007

Time Sea-Level Adjusted Pressure Absolute Pressure Temperature Relative Humidity Dew Point   
(mb) (inHg) (mb) (inHg) (C) (F) (%) (C) (F)
00:05 1010 29.83 839 24.78 -15.7 3.8 81 -18.3 -0.9
00:10 1010 29.83 839 24.78 -15.6 4 81 -18.1 -0.6
00:15 1010 29.83 839 24.78 -15.5 4.2 80 -18.1 -0.6
00:20 1010 29.83 839 24.78 -15.3 4.4 80 -18.1 -0.6
00:25 1010 29.83 839 24.78 -15.2 4.6 80 -17.9 -0.2
00:30 1010 29.83 839 24.78 -15.2 4.7 80 -17.9 -0.2
00:35 1010 29.83 839 24.78 -15.1 4.9 79 -17.9 -0.2
00:40 1010 29.83 839 24.78 -14.9 5.1 79 -17.7 0.1
00:45 1010 29.83 839 24.78 -15.2 4.6 81 -17.8 -0.1
00:50 1010 29.83 839 24.78 -15.4 4.2 81 -18 -0.5
00:55 1010 29.83 839 24.78 -15.3 4.4 81 -17.9 -0.1
01:00 1010 29.83 840 24.81 -15.1 4.8 80 -17.8 -0.1
01:05 1011 29.85 840 24.81 -15 5.1 79 -17.9 -0.2
01:10 1011 29.85 840 24.81 -14.9 5.2 80 -17.7 0.2
01:15 1011 29.85 840 24.81 -14.8 5.3 80 -17.5 0.4
01:20 1011 29.85 840 24.81 -14.7 5.5 80 -17.5 0.5
01:25 1011 29.85 840 24.81 -14.7 5.6 78 -17.7 0.2
01:30 1011 29.85 840 24.81 -15 5 79 -17.8 -0.1
01:35 1011 29.85 840 24.81 -15 5 80 -17.8 -0
01:40 1011 29.85 840 24.81 -14.7 5.5 79 -17.6 0.3
01:45 1011 29.85 840 24.81 -14.4 6.1 77 -17.5 0.5
01:50 1011 29.85 840 24.81 -14.2 6.4 78 -17.3 0.9
01:55 1011 29.85 840 24.81 -14.4 6 80 -17.2 1
02:00 1011 29.85 841 24.83 -14.2 6.4 79 -17.1 1.2
02:05 1011 29.85 840 24.81 -13.9 7 79 -16.8 1.7
02:10 1011 29.85 840 24.81 -13.8 7.1 78 -16.8 1.7
02:15 1011 29.85 840 24.81 -13.6 7.6 79 -16.4 2.4
02:20 1011 29.85 840 24.81 -13.1 8.5 77 -16.3 2.7
02:25 1011 29.85 841 24.83 -12.8 9 78 -16 3.3
02:30 1011 29.85 841 24.83 -12.3 9.8 75 -15.8 3.5
02:35 1011 29.85 841 24.83 -11.6 11.1 73 -15.6 3.9
02:40 1011 29.85 841 24.83 -11.1 12 72 -15.2 4.6
02:45 1012 29.88 841 24.83 -10.9 12.4 71 -15.2 4.7
02:50 1012 29.88 841 24.83 -10.4 13.2 68 -15.3 4.4
02:55 1011 29.85 841 24.83 -9.7 14.6 65 -15.2 4.7
03:00 1012 29.88 841 24.83 -9 15.9 64 -14.6 5.7
03:05 1012 29.88 841 24.83 -8.8 16.3 62 -14.7 5.5
03:10 1012 29.88 841 24.83 -8.6 16.5 63 -14.5 5.9
03:15 1012 29.88 841 24.83 -8.1 17.4 60 -14.6 5.6
03:20 1012 29.88 841 24.83 -7.7 18.1 59 -14.5 6
03:25 1012 29.88 841 24.83 -7.8 18 60 -14.2 6.4
03:30 1012 29.88 841 24.83 -8 17.6 61 -14.2 6.5
03:35 1012 29.88 841 24.83 -8.2 17.2 62 -14.3 6.3
03:40 1012 29.88 841 24.83 -8.2 17.2 62 -14.3 6.2
03:45 1012 29.88 841 24.83 -8.3 17.2 61 -14.6 5.8
03:50 1012 29.88 841 24.83 -7.6 18.2 53 -15.7 3.7
03:55 1012 29.88 841 24.83 -7 19.3 54 -14.7 5.5
04:00 1012 29.88 841 24.83 -7.3 18.9 56 -14.7 5.6
04:05 1012 29.88 841 24.83 -7.4 18.7 59 -14.2 6.5
04:10 1012 29.88 841 24.83 -7.3 18.8 54 -15.1 4.9
04:15 1012 29.88 841 24.83 -6.8 19.7 50 -15.7 3.7
04:20 1012 29.88 841 24.83 -6.2 20.8 46 -16 3.2
04:25 1012 29.88 841 24.83 -6.3 20.7 49 -15.3 4.4
04:30 1012 29.88 841 24.83 -6.7 20 48 -16 3.3
04:35 1012 29.88 841 24.83 -7 19.4 49 -16 3.3
04:40 1012 29.88 841 24.83 -6.7 19.9 48 -15.9 3.4
04:45 1012 29.88 841 24.83 -6.2 20.8 45 -16.3 2.7
04:50 1012 29.88 841 24.83 -5.5 22.2 45 -15.5 4
04:55 1012 29.88 841 24.83 -6.4 20.5 54 -14.2 6.4
05:00 1012 29.88 841 24.83 -8.1 17.5 56 -15.3 4.4
05:05 1012 29.88 842 24.86 -7.8 18 53 -15.7 3.7
05:10 1012 29.88 842 24.86 -7.7 18.2 55 -15.3 4.5
05:15 1012 29.88 842 24.86 -7.8 18 54 -15.5 4.2
05:20 1013 29.91 842 24.86 -7.7 18.2 53 -15.6 3.9
05:25 1013 29.91 842 24.86 -7.2 19.1 51 -15.8 3.6
05:30 1013 29.91 842 24.86 -7.1 19.3 52 -15.3 4.5
05:35 1013 29.91 842 24.86 -7.9 17.7 54 -15.7 3.7
05:40 1013 29.91 842 24.86 -8 17.7 54 -15.7 3.7
05:45 1013 29.91 842 24.86 -7.7 18.2 58 -14.6 5.7
05:50 1013 29.91 842 24.86 -8.2 17.3 55 -15.7 3.7
05:55 1013 29.91 842 24.86 -7.6 18.4 53 -15.5 4.1
06:00 1013 29.91 842 24.86 -7.5 18.5 55 -15.1 4.9
06:05 1013 29.91 842 24.86 -8.2 17.3 59 -14.9 5.2
06:10 1013 29.91 842 24.86 -8.8 16.3 61 -14.9 5.2
06:15 1013 29.91 842 24.86 -8.7 16.4 59 -15.2 4.6
06:20 1013 29.91 842 24.86 -8.2 17.3 61 -14.5 5.9
06:25 1013 29.91 842 24.86 -8.4 16.8 59 -15 5
06:30 1013 29.91 842 24.86 -8.3 17.1 59 -15 5
06:35 1013 29.91 842 24.86 -8.2 17.3 60 -14.7 5.6
06:40 1013 29.91 843 24.89 -8.4 17 62 -14.4 6
06:45 1014 29.94 843 24.89 -8.6 16.6 60 -15 5.1
06:50 1014 29.94 843 24.89 -8.2 17.2 59 -14.9 5.2
06:55 1014 29.94 843 24.89 -8.3 17.1 60 -14.7 5.5
07:00 1014 29.94 843 24.89 -8.5 16.8 61 -14.8 5.4
07:05 1014 29.94 843 24.89 -8.7 16.3 63 -14.5 5.9
07:10 1014 29.94 843 24.89 -8.7 16.3 62 -14.7 5.5
07:15 1014 29.94 843 24.89 -8.7 16.3 61 -14.9 5.1
07:20 1014 29.94 843 24.89 -8.4 16.8 61 -14.7 5.5
07:25 1014 29.94 843 24.89 -8.5 16.8 60 -14.9 5.2
07:30 1014 29.94 843 24.89 -8.3 17 60 -14.9 5.2
07:35 1014 29.94 843 24.89 -8 17.6 56 -15.3 4.5
07:40 1014 29.94 843 24.89 -7.5 18.5 54 -15.2 4.6
07:45 1014 29.94 843 24.89 -7.1 19.2 51 -15.5 4.1
07:50 1014 29.94 844 24.92 -6.9 19.6 55 -14.4 6
07:55 1014 29.94 844 24.92 -7.4 18.8 52 -15.7 3.7
08:00 1014 29.94 844 24.92 -6.8 19.8 53 -15 5.1
08:05 1014 29.94 843 24.89 -7.3 19 54 -15.2 4.7
08:10 1014 29.94 843 24.89 -7.3 18.8 54 -15.1 4.8
08:15 1014 29.94 844 24.92 -7.5 18.6 57 -14.6 5.8
08:20 1014 29.94 844 24.92 -8.1 17.4 58 -14.9 5.2
08:25 1014 29.94 844 24.92 -8 17.5 56 -15.3 4.4
08:30 1015 29.97 844 24.92 -8 17.7 57 -15 4.9
08:35 1014 29.94 844 24.92 -7.5 18.6 53 -15.4 4.3
08:40 1015 29.97 844 24.92 -7.1 19.3 53 -15.2 4.6
08:45 1015 29.97 844 24.92 -6.2 20.9 50 -15 5.1
08:50 1015 29.97 844 24.92 -6.3 20.6 53 -14.4 6
08:55 1015 29.97 844 24.92 -7 19.4 54 -14.8 5.4
09:00 1015 29.97 844 24.92 -7.1 19.3 53 -15.1 4.8
09:05 1015 29.97 845 24.95 -6.5 20.2 51 -15 5
09:10 1015 29.97 845 24.95 -6.2 20.9 48 -15.4 4.2
09:15 1015 29.97 845 24.95 -5.5 22.1 50 -14.3 6.3
09:20 1016 30 845 24.95 -5.5 22.2 50 -14.2 6.4
09:25 1016 30 845 24.95 -5.6 21.9 47 -15.2 4.7
09:30 1016 30 845 24.95 -4.5 24 45 -14.6 5.7
09:35 1016 30 845 24.95 -4.4 24.2 46 -14.2 6.4
09:40 1016 30 845 24.95 -4.5 24 47 -14.1 6.6
09:45 1016 30 845 24.95 -3.4 25.9 42 -14.5 5.8
09:50 1016 30 845 24.95 -2.8 26.9 42 -14 6.8
09:55 1015 29.97 845 24.95 -2 28.4 39 -14.3 6.2
10:00 1015 29.97 845 24.95 -1.8 28.7 38 -14.5 5.9
10:05 1015 29.97 844 24.92 -1.5 29.2 39 -13.9 7
10:10 1015 29.97 844 24.92 -1.7 29 40 -13.6 7.5
10:15 1015 29.97 844 24.92 -1.8 28.8 40 -13.6 7.4
10:20 1015 29.97 845 24.95 -1.6 29.1 40 -13.7 7.4
10:25 1015 29.97 845 24.95 -1.6 29.1 36 -14.8 5.4
10:30 1015 29.97 845 24.95 -1.7 29 38 -14.1 6.7
10:35 1016 30 845 24.95 -1.5 29.3 36 -14.8 5.4
10:40 1016 30 845 24.95 -1.4 29.6 40 -13.5 7.8
10:45 1016 30 845 24.95 -1.4 29.6 35 -14.8 5.4
10:50 1016 30 845 24.95 -1.2 29.9 35 -14.7 5.5
10:55 1016 30 845 24.95 -1.2 29.9 38 -13.7 7.3
11:00 1016 30 845 24.95 -1.4 29.5 39 -13.7 7.3
11:05 1016 30 845 24.95 -1.3 29.7 35 -15 5
11:10 1016 30 845 24.95 -1 30.3 34 -14.9 5.1
11:15 1016 30 845 24.95 -0.9 30.4 34 -15 4.9
11:20 1016 30 845 24.95 -0.5 31.1 32 -15.3 4.5
11:25 1016 30 845 24.95 -0.3 31.5 33 -14.8 5.4
11:30 1016 30 845 24.95 -0.3 31.4 34 -14.5 5.8
11:35 1016 30 845 24.95 -0.4 31.3 34 -14.5 6
11:40 1016 30 845 24.95 -0.2 31.6 33 -14.5 5.8
11:45 1016 30 845 24.95 -0.2 31.6 32 -14.8 5.3
11:50 1016 30 845 24.95 -0.2 31.6 32 -14.9 5.1
11:55 1016 30 845 24.95 -0.1 31.8 34 -14.3 6.2
12:00 1016 30 845 24.95 -0.3 31.5 35 -14 6.8
12:05 1016 30 845 24.95 -0.5 31.1 36 -13.9 6.9
12:10 1016 30 845 24.95 -0.5 31 36 -13.9 7.1
12:15 1016 30 845 24.95 -0.2 31.6 34 -14.2 6.4
12:20 1015 29.97 845 24.95 0 32 36 -13.5 7.6
12:25 1015 29.97 845 24.95 0.5 32.9 34 -13.7 7.3
12:30 1015 29.97 845 24.95 0.4 32.6 34 -13.9 6.9
12:35 1015 29.97 844 24.92 0.3 32.5 33 -14.1 6.7
12:40 1015 29.97 844 24.92 0.4 32.7 34 -13.8 7.1
12:45 1015 29.97 845 24.95 0.5 32.8 33 -14.1 6.6
12:50 1015 29.97 845 24.95 0.1 32.3 34 -14.1 6.6
12:55 1015 29.97 845 24.95 0 32 36 -13.5 7.7
13:00 1015 29.97 844 24.92 -0 32 36 -13.5 7.8
13:05 1015 29.97 844 24.92 -0.2 31.7 36 -13.5 7.7
13:10 1015 29.97 844 24.92 0.1 32.1 38 -12.7 9.2
13:15 1015 29.97 844 24.92 0.3 32.6 35 -13.3 8
13:20 1015 29.97 844 24.92 0.2 32.3 38 -12.6 9.2
13:25 1015 29.97 844 24.92 -0 32 38 -12.6 9.4
13:30 1015 29.97 844 24.92 0.2 32.4 35 -13.6 7.5
13:35 1015 29.97 844 24.92 -0.1 31.9 37 -13.2 8.2
13:40 1015 29.97 844 24.92 -0.1 31.8 41 -12 10.4
13:45 1015 29.97 844 24.92 0.2 32.4 38 -12.5 9.6
13:50 1015 29.97 844 24.92 0.2 32.4 38 -12.5 9.4
13:55 1015 29.97 844 24.92 -0.1 31.7 39 -12.6 9.3
14:00 1015 29.97 844 24.92 -0.1 31.9 38 -12.8 8.9
14:05 1015 29.97 844 24.92 0 32 37 -13.1 8.4
14:10 1015 29.97 844 24.92 -0.1 31.8 39 -12.6 9.4
14:15 1015 29.97 844 24.92 -0.2 31.6 38 -13 8.6
14:20 1015 29.97 844 24.92 -0.1 31.8 39 -12.4 9.8
14:25 1015 29.97 844 24.92 0.3 32.6 39 -12 10.5
14:30 1015 29.97 844 24.92 0.4 32.8 36 -13 8.6
14:35 1015 29.97 844 24.92 0.3 32.5 32 -14.5 5.8
14:40 1015 29.97 844 24.92 0.9 33.5 32 -14.3 6.3
14:45 1015 29.97 844 24.92 1.1 34 33 -13.6 7.6
14:50 1015 29.97 844 24.92 1.4 34.5 33 -13.1 8.4
14:55 1015 29.97 844 24.92 1.3 34.3 34 -13 8.6
15:00 1015 29.97 845 24.95 1.3 34.4 34 -13 8.6
15:05 1016 30 845 24.95 1.1 34 35 -12.9 8.8
15:10 1016 30 845 24.95 0.9 33.7 35 -12.8 9
15:15 1016 30 845 24.95 0.9 33.7 34 -13.1 8.5
15:20 1016 30 846 24.98 1 33.9 36 -12.6 9.3
15:25 1016 30 846 24.98 0.9 33.6 39 -11.6 11.1
15:30 1016 30 845 24.95 0.8 33.5 39 -11.7 11
15:35 1016 30 845 24.95 0.9 33.6 39 -11.7 11
15:40 1016 30 845 24.95 0.9 33.6 39 -11.5 11.3
15:45 1016 30 845 24.95 0.9 33.6 38 -11.9 10.5
15:50 1016 30 845 24.95 1.1 34.1 37 -12.1 10.3
15:55 1016 30 845 24.95 1.3 34.4 37 -11.7 10.9
16:00 1016 30 845 24.95 1.2 34.1 38 -11.6 11.2
16:05 1016 30 845 24.95 1.2 34.2 37 -12.1 10.2
16:10 1016 30 845 24.95 1.2 34.2 38 -11.5 11.3
16:15 1016 30 845 24.95 1.1 34 39 -11.5 11.2
16:20 1016 30 845 24.95 1 33.8 40 -11.3 11.6
16:25 1016 30 845 24.95 0.9 33.7 40 -11.2 11.8
16:30 1016 30 845 24.95 0.9 33.5 40 -11.2 11.8
16:35 1016 30 845 24.95 0.7 33.2 41 -11.2 11.9
16:40 1016 30 845 24.95 0.6 33.1 42 -10.9 12.4
16:45 1016 30 845 24.95 0.4 32.7 42 -11 12.1
16:50 1016 30 845 24.95 0.1 32.1 45 -10.6 12.8
16:55 1016 30 845 24.95 -0.2 31.7 45 -10.7 12.7
17:00 1015 29.97 845 24.95 -0.4 31.3 45 -11 12.3
17:05 1015 29.97 845 24.95 -0.6 31 46 -10.7 12.7
17:10 1016 30 845 24.95 -0.8 30.5 47 -10.7 12.7
17:15 1016 30 845 24.95 -0.6 30.8 48 -10.3 13.4
17:20 1016 30 845 24.95 -0.5 31.1 46 -10.7 12.8
17:25 1016 30 845 24.95 -0.3 31.5 45 -10.9 12.3
17:30 1016 30 845 24.95 0.1 32.2 41 -11.8 10.8
17:35 1016 30 845 24.95 1.3 34.3 38 -11.7 11
17:40 1016 30 845 24.95 1.5 34.8 40 -10.7 12.7
17:45 1016 30 845 24.95 1.4 34.5 42 -10.1 13.8
17:50 1016 30 845 24.95 1.4 34.6 41 -10.3 13.5
17:55 1016 30 845 24.95 1.2 34.2 40 -10.8 12.5
18:00 1016 30 845 24.95 2 35.5 37 -11.1 12
18:05 1016 30 845 24.95 2 35.6 40 -10.3 13.4
18:10 1016 30 845 24.95 2 35.7 39 -10.6 13
18:15 1016 30 846 24.98 2.1 35.8 37 -11 12.1
18:20 1016 30 846 24.98 2.3 36.2 40 -9.9 14.2
18:25 1017 30.03 846 24.98 2.1 35.7 44 -9.1 15.6
18:30 1017 30.03 846 24.98 1.7 35 45 -9 15.9
18:35 1017 30.03 846 24.98 1.5 34.8 44 -9.5 14.9
18:40 1017 30.03 846 24.98 1.9 35.4 44 -9 15.7
18:45 1017 30.03 846 24.98 2.1 35.7 45 -8.6 16.5
18:50 1017 30.03 846 24.98 2.1 35.7 44 -8.9 16
18:55 1016 30 846 24.98 1.9 35.3 49 -7.6 18.2
19:00 1016 30 845 24.95 1.5 34.7 52 -7.3 18.8
19:05 1016 30 846 24.98 1.5 34.7 51 -7.6 18.3
19:10 1016 30 846 24.98 1.5 34.7 51 -7.7 18.2
19:15 1016 30 846 24.98 1.7 35.1 49 -7.9 17.7
19:20 1017 30.03 846 24.98 1.9 35.5 48 -8 17.6
19:25 1017 30.03 846 24.98 1.8 35.3 49 -7.8 18
19:30 1017 30.03 846 24.98 1.6 35 51 -7.5 18.6
19:35 1017 30.03 846 24.98 1.5 34.7 51 -7.5 18.5
19:40 1017 30.03 846 24.98 1.6 34.9 51 -7.5 18.4
19:45 1017 30.03 846 24.98 1.6 35 50 -7.6 18.3
19:50 1017 30.03 846 24.98 1.6 35 48 -8.1 17.4
19:55 1017 30.03 846 24.98 1.6 34.8 51 -7.5 18.5
20:00 1017 30.03 846 24.98 1.4 34.5 52 -7.4 18.6
20:05 1017 30.03 846 24.98 1.2 34.2 53 -7.4 18.8
20:10 1017 30.03 846 24.98 1.1 34 52 -7.6 18.3
20:15 1017 30.03 846 24.98 1.2 34.1 53 -7.5 18.6
20:20 1017 30.03 846 24.98 1.2 34.2 51 -7.8 17.9
20:25 1017 30.03 846 24.98 1.3 34.3 52 -7.6 18.3
20:30 1017 30.03 846 24.98 1.3 34.3 52 -7.6 18.4
20:35 1017 30.03 846 24.98 1.3 34.4 52 -7.6 18.3
20:40 1017 30.03 846 24.98 1.4 34.5 52 -7.4 18.6
20:45 1017 30.03 846 24.98 1.6 34.9 52 -7.3 18.9
20:50 1017 30.03 846 24.98 1.8 35.2 50 -7.5 18.6
20:55 1017 30.03 846 24.98 1.9 35.3 51 -7.3 18.8
21:00 1017 30.03 846 24.98 1.9 35.4 51 -7.1 19.1
21:05 1017 30.03 846 24.98 1.8 35.3 54 -6.6 20.1
21:10 1017 30.03 846 24.98 1.6 34.8 54 -6.9 19.7
21:15 1017 30.03 846 24.98 1.6 34.9 53 -7.1 19.3
21:20 1017 30.03 846 24.98 1.5 34.6 55 -6.6 20.2
21:25 1017 30.03 846 24.98 1.1 33.9 57 -6.6 20.1
21:30 1017 30.03 846 24.98 0.8 33.5 57 -6.8 19.7
21:35 1017 30.03 846 24.98 0.8 33.5 57 -6.7 20
21:40 1017 30.03 846 24.98 0.4 32.7 59 -6.7 19.9
21:45 1017 30.03 846 24.98 0.4 32.6 57 -7.2 19
21:50 1017 30.03 846 24.98 0.7 33.3 53 -7.8 18
21:55 1017 30.03 846 24.98 1.2 34.2 53 -7.4 18.6
22:00 1017 30.03 846 24.98 1.3 34.3 53 -7.3 18.9
22:05 1017 30.03 846 24.98 1.5 34.8 51 -7.6 18.4
22:10 1017 30.03 847 25.01 1.8 35.2 52 -7.1 19.1
22:15 1018 30.06 847 25.01 1.7 35.1 52 -7.2 19.1
22:20 1018 30.06 847 25.01 1.6 34.9 53 -7 19.3
22:25 1018 30.06 847 25.01 1.6 34.9 53 -7.1 19.3
22:30 1018 30.06 847 25.01 1.5 34.7 54 -6.9 19.5
22:35 1018 30.06 847 25.01 1.5 34.6 53 -7 19.3
22:40 1018 30.06 847 25.01 1.8 35.2 50 -7.5 18.5
22:45 1018 30.06 847 25.01 2.6 36.7 47 -7.7 18.2
22:50 1018 30.06 847 25.01 3.1 37.6 45 -7.8 18
22:55 1018 30.06 847 25.01 3.2 37.7 46 -7.4 18.7
23:00 1018 30.06 847 25.01 3 37.3 48 -7.1 19.3
23:05 1018 30.06 847 25.01 2.7 36.9 49 -7.1 19.3
23:10 1018 30.06 847 25.01 2.6 36.6 49 -7 19.5
23:15 1018 30.06 847 25.01 2.6 36.6 49 -7 19.4
23:20 1018 30.06 847 25.01 2.6 36.6 49 -7.1 19.2
23:25 1018 30.06 847 25.01 2.6 36.7 48 -7.3 18.8
23:30 1018 30.06 847 25.01 2.8 37.1 48 -7.1 19.2
23:35 1018 30.06 847 25.01 3.1 37.5 45 -7.7 18.2
23:40 1018 30.06 847 25.01 3.3 37.9 46 -7.3 18.8
23:45 1018 30.06 847 25.01 3.3 38 46 -7.3 18.8
23:50 1018 30.06 847 25.01 3.1 37.6 48 -6.7 19.9
23:55 1018 30.06 847 25.01 3 37.3 47 -7.2 19.1
24:00 1018 30.06 847 25.01 3.2 37.7 46 -7.4 18.6